createdAt,value
2023-03-06T00:00:34.329Z,60.62
2023-03-06T00:03:18.210Z,60.73
2023-03-06T00:06:01.857Z,60.49
2023-03-06T00:08:46.465Z,60.82
2023-03-06T00:11:29.684Z,59.87
2023-03-06T00:14:12.993Z,61.46
2023-03-06T00:16:57.906Z,60.15
2023-03-06T00:19:41.556Z,60.59
2023-03-06T00:22:24.832Z,61.96
2023-03-06T00:25:09.398Z,60.99
2023-03-06T00:27:53.015Z,61.33
2023-03-06T00:30:36.899Z,61.94
2023-03-06T00:33:21.599Z,61.24
2023-03-06T00:36:06.988Z,61.44
2023-03-06T00:38:50.607Z,61.54
2023-03-06T00:41:33.796Z,60.92
2023-03-06T00:44:17.084Z,61.37
2023-03-06T00:47:00.351Z,61.15
2023-03-06T00:49:45.812Z,61.73
2023-03-06T00:52:29.294Z,60.13
2023-03-06T00:55:13.114Z,60.31
2023-03-06T00:57:56.384Z,60.70
2023-03-06T01:00:41.170Z,59.94
2023-03-06T01:03:26.050Z,60.38
2023-03-06T01:06:11.231Z,59.76
2023-03-06T01:08:54.673Z,60.89
2023-03-06T01:11:38.024Z,61.05
2023-03-06T01:14:22.788Z,59.02
2023-03-06T01:17:06.681Z,60.15
2023-03-06T01:19:50.144Z,60.41
2023-03-06T01:22:35.211Z,60.86
2023-03-06T01:25:19.357Z,61.50
2023-03-06T01:28:02.776Z,59.78
2023-03-06T01:30:46.305Z,60.84
2023-03-06T01:33:29.900Z,61.41
2023-03-06T01:36:14.434Z,61.46
2023-03-06T01:39:01.365Z,60.87
2023-03-06T01:41:44.934Z,61.32
2023-03-06T01:44:28.194Z,61.89
2023-03-06T01:47:11.460Z,61.80
2023-03-06T01:49:55.043Z,63.03
2023-03-06T01:52:41.454Z,62.61
2023-03-06T01:55:29.238Z,63.50
2023-03-06T01:58:16.171Z,62.40
2023-03-06T02:00:59.840Z,63.73
2023-03-06T02:03:43.986Z,65.87
2023-03-06T02:06:27.208Z,65.46
2023-03-06T02:09:12.220Z,65.54
2023-03-06T02:11:57.264Z,66.40
2023-03-06T02:14:42.344Z,66.77
2023-03-06T02:17:25.854Z,67.95
2023-03-06T02:20:14.040Z,67.81
2023-03-06T02:23:05.564Z,68.70
2023-03-06T02:25:52.469Z,69.72
2023-03-06T02:28:36.064Z,70.32
2023-03-06T02:31:23.381Z,69.60
2023-03-06T02:34:29.406Z,69.29
2023-03-06T02:37:12.702Z,69.40
2023-03-06T02:40:03.035Z,69.69
2023-03-06T02:42:56.524Z,70.10
2023-03-06T02:45:45.307Z,70.85
2023-03-06T02:48:28.684Z,71.48
2023-03-06T02:51:12.090Z,71.01
2023-03-06T02:53:55.430Z,71.54
2023-03-06T02:56:38.693Z,71.34
2023-03-06T02:59:23.320Z,70.92
2023-03-06T03:02:10.624Z,71.04
2023-03-06T03:04:53.905Z,71.66
2023-03-06T03:07:37.536Z,71.36
2023-03-06T03:10:21.001Z,72.16
2023-03-06T03:13:04.206Z,72.25
2023-03-06T03:15:59.307Z,71.43
2023-03-06T03:18:44.999Z,71.57
2023-03-06T03:21:28.268Z,71.28
2023-03-06T03:24:11.831Z,71.52
2023-03-06T03:26:55.108Z,71.62
2023-03-06T03:29:38.282Z,71.05
2023-03-06T03:32:23.107Z,70.75
2023-03-06T03:35:07.637Z,70.98
2023-03-06T03:37:52.702Z,70.61
2023-03-06T03:40:36.008Z,70.51
2023-03-06T03:43:19.851Z,70.03
2023-03-06T03:46:03.178Z,70.91
2023-03-06T03:48:48.335Z,71.04
2023-03-06T03:51:32.106Z,70.74
2023-03-06T03:54:17.745Z,71.28
2023-03-06T03:57:01.298Z,71.88
2023-03-06T03:59:44.468Z,71.36
2023-03-06T04:02:27.848Z,71.34
2023-03-06T04:05:14.739Z,70.97
2023-03-06T04:07:57.918Z,71.67
2023-03-06T04:10:41.147Z,71.00
2023-03-06T04:13:24.766Z,70.40
2023-03-06T04:16:08.851Z,71.04
2023-03-06T04:18:52.130Z,70.76
2023-03-06T04:21:36.961Z,71.05
2023-03-06T04:24:20.999Z,71.53
2023-03-06T04:27:04.375Z,70.58
2023-03-06T04:29:47.776Z,71.13
2023-03-06T04:32:31.046Z,71.10
2023-03-06T04:35:14.714Z,70.61
2023-03-06T04:37:59.904Z,70.44
2023-03-06T04:40:44.958Z,69.40
2023-03-06T04:43:28.647Z,69.17
2023-03-06T04:46:13.320Z,69.80
2023-03-06T04:48:56.599Z,68.38
2023-03-06T04:51:39.763Z,68.30
2023-03-06T04:54:24.394Z,68.15
2023-03-06T04:57:07.759Z,67.90
2023-03-06T04:59:50.963Z,68.02
2023-03-06T05:02:35.150Z,67.93
2023-03-06T05:05:19.704Z,66.69
2023-03-06T05:08:02.900Z,66.73
2023-03-06T05:10:47.978Z,65.43
2023-03-06T05:13:31.869Z,65.67
2023-03-06T05:16:15.174Z,66.31
2023-03-06T05:18:58.578Z,65.74
2023-03-06T05:21:41.822Z,66.28
2023-03-06T05:24:25.172Z,65.59
2023-03-06T05:27:09.864Z,65.15
2023-03-06T05:29:53.315Z,65.89
2023-03-06T05:32:36.594Z,65.72
2023-03-06T05:35:23.547Z,65.18
2023-03-06T05:38:07.141Z,64.14
2023-03-06T05:40:50.829Z,64.92
2023-03-06T05:43:35.564Z,63.44
2023-03-06T05:46:18.835Z,62.70
2023-03-06T05:49:02.468Z,62.54
2023-03-06T05:51:45.835Z,63.75
2023-03-06T05:54:29.504Z,62.20
2023-03-06T05:57:12.857Z,61.97
2023-03-06T05:59:58.723Z,61.38
2023-03-06T06:02:42.402Z,61.17
2023-03-06T06:05:25.570Z,60.23
2023-03-06T06:08:08.781Z,58.97
2023-03-06T06:10:53.450Z,58.42
2023-03-06T06:13:39.544Z,56.52
2023-03-06T06:16:25.835Z,53.49
2023-03-06T06:19:09.079Z,50.50
2023-03-06T06:21:54.269Z,46.24
2023-03-06T06:24:37.680Z,45.13
2023-03-06T06:27:21.082Z,44.73
2023-03-06T06:30:04.493Z,43.63
2023-03-06T06:32:49.225Z,42.38
2023-03-06T06:35:36.272Z,38.52
2023-03-06T06:38:19.653Z,35.55
2023-03-06T06:41:33.491Z,35.13
2023-03-06T06:44:14.060Z,32.76
2023-03-06T06:50:02.213Z,29.73
2023-03-06T06:52:45.591Z,26.76
2023-03-06T06:55:28.864Z,22.96
2023-03-06T06:58:12.156Z,21.26
2023-03-06T07:00:55.801Z,19.82
2023-03-06T07:03:39.820Z,19.25
2023-03-06T07:06:24.760Z,18.63
2023-03-06T07:09:08.201Z,19.06
2023-03-06T07:11:52.015Z,19.04
2023-03-06T07:14:35.217Z,20.89
2023-03-06T07:17:18.435Z,17.31
2023-03-06T07:20:01.756Z,16.66
2023-03-06T07:22:51.488Z,16.53
2023-03-06T07:25:35.351Z,16.61
2023-03-06T07:28:19.566Z,18.22
2023-03-06T07:31:03.310Z,18.18
2023-03-06T07:33:46.791Z,16.16
2023-03-06T07:36:30.220Z,16.22
2023-03-06T07:39:14.937Z,17.61
2023-03-06T07:41:58.810Z,14.30
2023-03-06T07:44:42.468Z,14.14
2023-03-06T07:47:25.675Z,13.36
2023-03-06T07:50:09.771Z,15.72
2023-03-06T07:52:54.223Z,14.90
2023-03-06T07:55:41.291Z,14.94
2023-03-06T07:58:25.523Z,14.65
2023-03-06T08:01:10.620Z,13.66
2023-03-06T08:03:54.441Z,12.50
2023-03-06T08:06:37.852Z,11.73
2023-03-06T08:09:21.289Z,12.95
2023-03-06T08:12:06.133Z,10.95
2023-03-06T08:14:49.435Z,10.75
2023-03-06T08:17:32.682Z,9.70
2023-03-06T08:20:15.906Z,10.07
2023-03-06T08:22:59.622Z,9.79
2023-03-06T08:25:43.142Z,10.47
2023-03-06T08:28:28.624Z,11.12
2023-03-06T08:31:14.345Z,9.51
2023-03-06T08:33:59.077Z,9.50
2023-03-06T08:36:42.748Z,10.45
2023-03-06T08:39:26.012Z,10.96
2023-03-06T08:42:11.244Z,9.71
2023-03-06T08:44:55.970Z,9.82
2023-03-06T08:47:39.221Z,8.87
2023-03-06T08:50:22.865Z,8.79
2023-03-06T08:53:06.235Z,8.73
2023-03-06T08:55:49.614Z,9.11
2023-03-06T08:58:33.071Z,9.05
2023-03-06T09:01:20.143Z,8.63
2023-03-06T09:04:05.875Z,7.73
2023-03-06T09:06:49.322Z,8.90
2023-03-06T09:09:32.606Z,9.09
2023-03-06T09:12:15.950Z,9.56
2023-03-06T09:14:59.757Z,7.99
2023-03-06T09:17:45.507Z,8.72
2023-03-06T09:20:28.911Z,9.22
2023-03-06T09:23:13.381Z,8.83
2023-03-06T09:25:58.512Z,8.82
2023-03-06T09:28:42.984Z,8.51
2023-03-06T09:31:26.630Z,8.73
2023-03-06T09:34:11.523Z,9.20
2023-03-06T09:36:57.056Z,9.28
2023-03-06T09:39:41.048Z,9.96
2023-03-06T09:42:25.455Z,10.18
2023-03-06T09:45:13.211Z,10.14
2023-03-06T09:48:01.969Z,11.68
2023-03-06T09:50:53.089Z,12.01
2023-03-06T09:53:59.216Z,13.33
2023-03-06T09:56:48.662Z,13.86
2023-03-06T09:59:33.391Z,12.46
2023-03-06T10:02:24.725Z,9.91
2023-03-06T10:05:15.254Z,10.83
2023-03-06T10:08:03.595Z,8.97
2023-03-06T10:10:52.392Z,8.89
2023-03-06T10:13:42.373Z,8.72
2023-03-06T10:16:29.208Z,10.21
2023-03-06T10:19:17.214Z,9.46
2023-03-06T10:22:04.858Z,9.77
2023-03-06T10:24:54.823Z,8.65
2023-03-06T10:27:49.548Z,7.83
2023-03-06T10:30:42.338Z,8.69
2023-03-06T10:33:40.095Z,8.23
2023-03-06T10:36:27.422Z,8.46
2023-03-06T10:39:16.759Z,8.89
2023-03-06T10:42:01.725Z,8.40
2023-03-06T10:44:45.333Z,11.10
2023-03-06T10:47:31.407Z,14.76
2023-03-06T10:50:28.015Z,12.53
2023-03-06T10:53:21.637Z,11.19
2023-03-06T10:56:05.539Z,9.68
2023-03-06T10:59:07.742Z,9.79
2023-03-06T11:01:52.463Z,8.14
2023-03-06T11:04:37.748Z,7.88
2023-03-06T11:07:23.051Z,7.00
2023-03-06T11:10:18.181Z,6.58
2023-03-06T11:13:06.329Z,7.51
2023-03-06T11:15:57.906Z,9.95
2023-03-06T11:18:43.452Z,12.57
2023-03-06T11:21:31.649Z,14.07
2023-03-06T11:24:20.009Z,16.72
2023-03-06T11:27:10.623Z,19.70
2023-03-06T11:29:56.308Z,20.70
2023-03-06T11:32:47.360Z,21.61
2023-03-06T11:35:35.867Z,23.88
2023-03-06T11:38:24.819Z,22.46
2023-03-06T11:41:19.737Z,19.53
2023-03-06T11:44:13.978Z,17.32
2023-03-06T11:47:13.926Z,16.11
2023-03-06T11:50:14.996Z,17.06
2023-03-06T11:52:59.994Z,18.89
2023-03-06T11:55:52.212Z,19.80
2023-03-06T11:58:58.177Z,21.79
2023-03-06T12:01:50.809Z,22.77
2023-03-06T12:04:52.485Z,24.68
2023-03-06T12:07:47.596Z,24.36
2023-03-06T12:10:37.327Z,25.35
2023-03-06T12:13:30.395Z,26.31
2023-03-06T12:16:50.321Z,25.94
2023-03-06T12:19:44.967Z,26.66
2023-03-06T12:22:57.975Z,27.18
2023-03-06T12:25:54.191Z,27.53
2023-03-06T12:28:51.569Z,27.35
2023-03-06T12:32:05.340Z,27.87
2023-03-06T12:35:06.156Z,26.90
2023-03-06T12:38:08.548Z,27.66
2023-03-06T12:41:04.833Z,28.17
2023-03-06T12:44:21.544Z,29.29
2023-03-06T12:47:12.079Z,30.06
2023-03-06T12:50:00.872Z,29.83
2023-03-06T12:52:45.137Z,29.38
2023-03-06T12:55:41.695Z,29.84
2023-03-06T12:58:53.301Z,29.25
2023-03-06T13:02:06.141Z,28.72
2023-03-06T13:05:02.649Z,28.79
2023-03-06T13:07:59.209Z,29.18
2023-03-06T13:10:49.340Z,28.70
2023-03-06T13:13:34.410Z,28.68
2023-03-06T13:16:28.393Z,29.06
2023-03-06T13:19:17.684Z,29.05
2023-03-06T13:22:06.656Z,29.22
2023-03-06T13:25:28.998Z,29.06
2023-03-06T13:28:25.430Z,29.37
2023-03-06T13:31:21.343Z,29.14
2023-03-06T13:34:36.439Z,31.16
2023-03-06T13:38:00.628Z,29.87
2023-03-06T13:40:44.148Z,29.67
2023-03-06T13:43:27.686Z,29.61
2023-03-06T13:46:26.030Z,30.67
2023-03-06T13:49:24.426Z,32.19
2023-03-06T13:52:19.690Z,31.48
2023-03-06T13:55:12.429Z,30.99
2023-03-06T13:58:12.154Z,32.32
2023-03-06T14:01:17.731Z,32.80
2023-03-06T14:04:34.619Z,33.14
2023-03-06T14:07:26.177Z,32.92
2023-03-06T14:10:22.316Z,32.66
2023-03-06T14:13:09.573Z,33.53
2023-03-06T14:15:54.687Z,33.96
2023-03-06T14:18:44.161Z,33.98
2023-03-06T14:21:31.660Z,33.40
2023-03-06T14:24:20.121Z,33.23
2023-03-06T14:27:03.956Z,32.35
2023-03-06T14:29:48.832Z,32.19
2023-03-06T14:32:32.809Z,33.21
2023-03-06T14:35:27.997Z,33.58
2023-03-06T14:42:21.320Z,34.96
2023-03-06T14:45:16.095Z,35.47
2023-03-06T14:47:59.282Z,35.67
2023-03-06T14:50:47.709Z,36.20
2023-03-06T14:53:33.933Z,36.12
2023-03-06T14:56:21.233Z,35.64
2023-03-06T14:59:11.969Z,35.93
2023-03-06T15:02:01.150Z,37.15
2023-03-06T15:04:47.660Z,37.12
2023-03-06T15:07:37.610Z,37.41
2023-03-06T15:10:26.338Z,37.87
2023-03-06T15:13:11.513Z,38.03
2023-03-06T15:16:01.366Z,38.76
2023-03-06T15:18:57.209Z,39.36
2023-03-06T15:21:41.108Z,39.23
2023-03-06T15:24:35.724Z,38.83
2023-03-06T15:27:21.461Z,38.93
2023-03-06T15:30:23.623Z,38.36
2023-03-06T15:33:21.530Z,38.59
2023-03-06T15:36:07.149Z,38.45
2023-03-06T15:38:50.591Z,38.02
2023-03-06T15:41:36.882Z,38.43
2023-03-06T15:44:20.152Z,38.22
2023-03-06T15:47:08.821Z,39.09
2023-03-06T15:49:53.847Z,39.57
2023-03-06T15:52:38.383Z,39.08
2023-03-06T15:55:23.829Z,38.62
2023-03-06T15:58:07.806Z,38.23
2023-03-06T16:00:51.046Z,38.88
2023-03-06T16:03:34.348Z,38.92
2023-03-06T16:06:21.521Z,38.79
2023-03-06T16:09:05.953Z,39.23
2023-03-06T16:11:49.957Z,38.74
2023-03-06T16:14:33.803Z,38.78
2023-03-06T16:17:17.758Z,38.88
2023-03-06T16:20:01.353Z,39.27
2023-03-06T16:22:46.801Z,39.57
2023-03-06T16:25:33.420Z,39.40
2023-03-06T16:28:18.149Z,39.50
2023-03-06T16:31:01.505Z,40.20
2023-03-06T16:33:44.841Z,40.53
2023-03-06T16:36:30.550Z,39.69
2023-03-06T16:39:17.757Z,39.88
2023-03-06T16:42:00.999Z,39.98
2023-03-06T16:44:44.143Z,40.28
2023-03-06T16:47:27.370Z,40.08
2023-03-06T16:50:23.034Z,40.58
2023-03-06T16:53:07.317Z,40.74
2023-03-06T16:55:52.237Z,40.57
2023-03-06T16:58:35.641Z,40.65
2023-03-06T17:01:21.033Z,40.72
2023-03-06T17:04:04.505Z,40.90
2023-03-06T17:06:48.453Z,40.86
2023-03-06T17:09:32.466Z,41.57
2023-03-06T17:12:17.046Z,40.83
2023-03-06T17:15:00.476Z,40.74
2023-03-06T17:17:44.038Z,41.29
2023-03-06T17:20:27.274Z,41.37
2023-03-06T17:23:10.625Z,41.42
2023-03-06T17:25:54.227Z,41.60
2023-03-06T17:28:40.393Z,41.85
2023-03-06T17:31:25.514Z,41.87
2023-03-06T17:34:08.937Z,42.03
2023-03-06T17:36:52.287Z,41.31
2023-03-06T17:39:37.302Z,41.42
2023-03-06T17:42:20.461Z,41.56
2023-03-06T17:45:06.188Z,41.98
2023-03-06T17:47:49.664Z,42.10
2023-03-06T17:50:32.999Z,42.80
2023-03-06T17:53:16.187Z,42.94
2023-03-06T17:55:59.603Z,43.25
2023-03-06T17:58:43.335Z,43.14
2023-03-06T18:01:30.068Z,42.92
2023-03-06T18:04:13.572Z,43.89
2023-03-06T18:06:57.273Z,43.82
2023-03-06T18:09:42.809Z,44.03
2023-03-06T18:12:26.113Z,44.36
2023-03-06T18:15:10.381Z,45.18
2023-03-06T18:17:56.715Z,45.03
2023-03-06T18:20:43.314Z,45.33
2023-03-06T18:23:27.318Z,45.60
2023-03-06T18:26:12.064Z,45.67
2023-03-06T18:28:57.642Z,45.52
2023-03-06T18:31:42.673Z,45.99
2023-03-06T18:34:27.601Z,46.04
2023-03-06T18:37:11.295Z,46.76
2023-03-06T18:39:55.251Z,47.17
2023-03-06T18:42:38.498Z,47.08
2023-03-06T18:45:22.156Z,46.73
2023-03-06T18:48:06.013Z,46.08
2023-03-06T18:50:52.049Z,45.92
2023-03-06T18:53:35.426Z,44.78
2023-03-06T18:56:20.897Z,44.52
2023-03-06T18:59:05.028Z,44.92
2023-03-06T19:01:50.043Z,44.95
2023-03-06T19:04:33.423Z,45.68
2023-03-06T19:07:18.668Z,45.39
2023-03-06T19:10:05.172Z,45.71
2023-03-06T19:12:48.488Z,44.17
2023-03-06T19:15:32.885Z,44.28
2023-03-06T19:18:18.023Z,44.32
2023-03-06T19:21:11.492Z,43.85
2023-03-06T19:23:56.858Z,44.04
2023-03-06T19:26:40.788Z,43.87
2023-03-06T19:29:24.071Z,44.39
2023-03-06T19:32:08.135Z,43.92
2023-03-06T19:34:51.570Z,44.45
2023-03-06T19:37:37.360Z,44.17
2023-03-06T19:40:24.899Z,44.19
2023-03-06T19:43:08.392Z,45.28
2023-03-06T19:45:52.396Z,45.10
2023-03-06T19:48:35.698Z,44.62
2023-03-06T19:51:18.995Z,44.78
2023-03-06T19:54:02.255Z,45.12
2023-03-06T19:56:46.962Z,45.39
2023-03-06T19:59:30.552Z,44.54
2023-03-06T20:02:15.617Z,44.44
2023-03-06T20:04:59.009Z,43.71
2023-03-06T20:07:42.235Z,42.82
2023-03-06T20:10:26.909Z,42.61
2023-03-06T20:13:13.495Z,43.47
2023-03-06T20:15:58.367Z,43.41
2023-03-06T20:18:41.979Z,44.28
2023-03-06T20:21:26.082Z,43.55
2023-03-06T20:24:11.034Z,43.05
2023-03-06T20:26:57.584Z,43.61
2023-03-06T20:29:44.776Z,44.16
2023-03-06T20:32:28.026Z,44.98
2023-03-06T20:35:11.641Z,46.46
2023-03-06T20:37:59.949Z,45.62
2023-03-06T20:40:45.039Z,45.83
2023-03-06T20:43:28.306Z,45.51
2023-03-06T20:46:14.231Z,46.26
2023-03-06T20:48:58.404Z,46.71
2023-03-06T20:51:43.066Z,46.78
2023-03-06T20:54:26.439Z,47.32
2023-03-06T20:57:09.990Z,46.74
2023-03-06T20:59:53.342Z,45.67
2023-03-06T21:02:37.945Z,47.06
2023-03-06T21:05:21.246Z,47.59
2023-03-06T21:08:04.596Z,47.56
2023-03-06T21:10:48.986Z,47.98
2023-03-06T21:13:33.251Z,47.22
2023-03-06T21:16:19.764Z,46.88
2023-03-06T21:19:05.367Z,46.21
2023-03-06T21:21:48.883Z,46.27
2023-03-06T21:24:32.237Z,47.18
2023-03-06T21:27:15.505Z,47.45
2023-03-06T21:29:58.821Z,46.53
2023-03-06T21:32:42.402Z,46.59
2023-03-06T21:35:27.218Z,46.63
2023-03-06T21:38:10.746Z,46.14
2023-03-06T21:40:56.164Z,45.89
2023-03-06T21:43:39.606Z,46.73
2023-03-06T21:46:22.947Z,47.55
2023-03-06T21:49:09.677Z,48.27
2023-03-06T21:51:55.278Z,48.57
2023-03-06T21:54:38.614Z,48.60
2023-03-06T21:57:22.230Z,48.76
2023-03-06T22:00:08.940Z,49.52
2023-03-06T22:02:52.437Z,48.64
2023-03-06T22:05:35.938Z,49.38
2023-03-06T22:08:21.672Z,49.33
2023-03-06T22:11:09.745Z,49.56
2023-03-06T22:13:53.560Z,49.78
2023-03-06T22:16:39.781Z,49.62
2023-03-06T22:19:23.058Z,49.46
2023-03-06T22:22:08.719Z,49.23
2023-03-06T22:24:54.666Z,49.42
2023-03-06T22:27:37.968Z,49.17
2023-03-06T22:30:22.335Z,49.66
2023-03-06T22:33:05.902Z,49.76
2023-03-06T22:35:49.200Z,49.41
2023-03-06T22:38:35.637Z,48.81
2023-03-06T22:41:22.007Z,47.72
2023-03-06T22:44:05.750Z,47.66
2023-03-06T22:46:51.456Z,47.77
2023-03-06T22:49:34.771Z,48.19
2023-03-06T22:52:19.745Z,48.71
2023-03-06T22:55:03.405Z,48.92
2023-03-06T22:57:48.028Z,50.56
2023-03-06T23:00:31.629Z,51.00
2023-03-06T23:03:14.816Z,51.44
2023-03-06T23:05:58.269Z,52.23
2023-03-06T23:08:41.618Z,53.12
2023-03-06T23:11:27.836Z,52.67
2023-03-06T23:14:13.977Z,53.23
2023-03-06T23:16:57.274Z,53.90
2023-03-06T23:19:40.758Z,54.43
2023-03-06T23:22:24.460Z,55.21
2023-03-06T23:25:08.920Z,55.57
2023-03-06T23:27:52.540Z,56.44
2023-03-06T23:30:39.537Z,55.36
2023-03-06T23:33:22.996Z,55.72
2023-03-06T23:36:08.513Z,56.10
2023-03-06T23:38:52.238Z,55.88
2023-03-06T23:41:35.825Z,55.89
2023-03-06T23:44:19.751Z,55.59
2023-03-06T23:47:04.403Z,55.47
2023-03-06T23:49:47.773Z,55.55
2023-03-06T23:52:31.155Z,56.05
2023-03-06T23:55:14.277Z,56.73
2023-03-06T23:57:57.709Z,56.39
